Time;durP1;ratioP1;P1;durP2;ratioP2;P2;SDS_P1;SDS_P2;PMS_P1;PMS_P2;Temp;Humidity;BMP_temperature;BMP_pressure;BME280_temperature;BME280_humidity;BME280_pressure;Samples;Min_cycle;Max_cycle;Signal;HPM_P1;HPM_P2
2021/11/16 00:01:10;;;;;;;;;;;;;;;;;;5062765;28;19932;-64
2021/11/16 00:03:37;;;;;;;;;;;;;;;;;;5067805;28;19924;-64
2021/11/16 00:06:04;;;;;;;;;;;;;;;;;;5064056;28;20020;-63
2021/11/16 00:08:31;;;;;;;;;;;;;;;;;;5063754;28;19924;-64
2021/11/16 00:10:58;;;;;;;;;;;;;;;;;;5065293;28;19931;-65
2021/11/16 00:13:25;;;;;;;;;;;;;;;;;;5066527;28;19928;-65
2021/11/16 00:15:54;;;;;;;;;;;;;;;;;;5060762;28;20284;-65
2021/11/16 00:18:26;;;;;;;;;;;;;;;;;;5066598;28;19955;-65
2021/11/16 00:20:53;;;;;;;;;;;;;;;;;;5061921;28;19932;-65
2021/11/16 00:23:21;;;;;;;;;;;;;;;;;;5059741;28;19925;-65
2021/11/16 00:25:49;;;;;;;;;;;;;;;;;;5061560;28;20011;-65
2021/11/16 00:28:16;;;;;;;;;;;;;;;;;;5062645;28;19955;-65
2021/11/16 00:30:43;;;;;;;;;;;;;;;;;;5061239;28;19924;-65
2021/11/16 00:33:11;;;;;;;;;;;;;;;;;;5064528;28;20015;-65
2021/11/16 00:35:38;;;;;;;;;;;;;;;;;;5066100;28;20351;-65
2021/11/16 00:38:05;;;;;;;;;;;;;;;;;;5063015;28;19928;-65
2021/11/16 00:40:32;;;;;;;;;;;;;;;;;;5057798;28;19925;-64
2021/11/16 00:42:59;;;;;;;;;;;;;;;;;;5058488;28;19929;-65
2021/11/16 00:45:27;;;;;;;;;;;;;;;;;;5065299;28;19925;-64
2021/11/16 00:47:54;;;;;;;;;;;;;;;;;;5066370;28;19925;-64
2021/11/16 00:50:21;;;;;;;;;;;;;;;;;;5062549;28;19930;-64
2021/11/16 00:52:48;;;;;;;;;;;;;;;;;;5067796;28;19924;-64
2021/11/16 00:55:15;;;;;;;;;;;;;;;;;;5062533;28;19973;-64
2021/11/16 00:57:42;;;;;;;;;;;;;;;;;;5059608;28;19925;-64
2021/11/16 01:00:09;;;;;;;;;;;;;;;;;;5060668;28;19932;-64
2021/11/16 01:02:36;;;;;;;;;;;;;;;;;;5060648;28;19925;-64
2021/11/16 01:05:03;;;;;;;;;;;;;;;;;;5056041;28;20020;-65
2021/11/16 01:07:31;;;;;;;;;;;;;;;;;;5058185;28;19992;-64
2021/11/16 01:09:58;;;;;;;;;;;;;;;;;;5058730;28;19968;-64
2021/11/16 01:12:25;;;;;;;;;;;;;;;;;;5061968;28;19925;-62
2021/11/16 01:14:52;;;;;;;;;;;;;;;;;;5059779;28;20368;-62
2021/11/16 01:17:19;;;;;;;;;;;;;;;;;;5064313;28;19924;-62
2021/11/16 01:19:47;;;;;;;;;;;;;;;;;;5058606;28;19925;-63
2021/11/16 01:22:13;;;;;;;;;;;;;;;;;;5066744;28;19928;-63
2021/11/16 01:24:40;;;;;;;;;;;;;;;;;;5065327;28;19924;-63
2021/11/16 01:27:08;;;;;;;;;;;;;;;;;;5064859;28;19931;-63
2021/11/16 01:29:36;;;;;;;;;;;;;;;;;;5060089;28;19951;-63
2021/11/16 01:32:04;;;;;;;;;;;;;;;;;;5060518;28;19924;-64
2021/11/16 01:34:32;;;;;;;;;;;;;;;;;;5060606;28;19931;-63
2021/11/16 01:36:59;;;;;;;;;;;;;;;;;;5061706;28;19925;-63
2021/11/16 01:39:27;;;;;;;;;;;;;;;;;;5065116;28;20387;-64
2021/11/16 01:41:54;;;;;;;;;;;;;;;;;;5061795;28;20270;-64
2021/11/16 01:44:21;;;;;;;;;;;;;;;;;;5059047;28;19931;-64
2021/11/16 01:46:48;;;;;;;;;;;;;;;;;;5066611;28;19925;-63
2021/11/16 01:49:15;;;;;;;;;;;;;;;;;;5062838;28;19925;-63
2021/11/16 01:51:41;;;;;;;;;;;;;;;;;;5061722;28;19946;-63
2021/11/16 01:54:08;;;;;;;;;;;;;;;;;;5059564;28;20328;-64
2021/11/16 01:56:35;;;;;;;;;;;;;;;;;;5058425;28;19929;-64
2021/11/16 01:59:02;;;;;;;;;;;;;;;;;;5058910;28;19931;-64
2021/11/16 02:01:29;;;;;;;;;;;;;;;;;;5066602;28;19931;-64
2021/11/16 02:03:56;;;;;;;;;;;;;;;;;;5059765;28;20115;-64
2021/11/16 02:06:23;;;;;;;;;;;;;;;;;;5058724;28;19933;-64
2021/11/16 02:08:50;;;;;;;;;;;;;;;;;;5059518;28;19932;-64
2021/11/16 02:11:17;;;;;;;;;;;;;;;;;;5059066;28;19931;-64
2021/11/16 02:13:44;;;;;;;;;;;;;;;;;;5056234;28;19937;-63
2021/11/16 02:16:11;;;;;;;;;;;;;;;;;;5063528;28;20277;-63
2021/11/16 02:18:38;;;;;;;;;;;;;;;;;;5059116;28;20399;-64
2021/11/16 02:21:05;;;;;;;;;;;;;;;;;;5059781;28;19932;-64
2021/11/16 02:23:32;;;;;;;;;;;;;;;;;;5059964;28;19924;-63
2021/11/16 02:25:59;;;;;;;;;;;;;;;;;;5060918;28;19928;-63
2021/11/16 02:28:26;;;;;;;;;;;;;;;;;;5061633;28;20331;-63
2021/11/16 02:30:54;;;;;;;;;;;;;;;;;;5055129;28;19932;-64
2021/11/16 02:33:21;;;;;;;;;;;;;;;;;;5058645;28;19931;-63
2021/11/16 02:35:48;;;;;;;;;;;;;;;;;;5057745;28;19939;-64
2021/11/16 02:38:15;;;;;;;;;;;;;;;;;;5067377;28;19924;-63
2021/11/16 02:40:42;;;;;;;;;;;;;;;;;;5054306;28;19939;-64
2021/11/16 02:43:08;;;;;;;;;;;;;;;;;;5062770;28;19932;-63
2021/11/16 02:45:35;;;;;;;;;;;;;;;;;;5066163;28;20372;-63
2021/11/16 02:48:11;;;;;;;;;;;;;;;;;;5060541;28;20003;-62
2021/11/16 02:50:38;;;;;;;;;;;;;;;;;;5056652;28;20571;-63
2021/11/16 02:53:05;;;;;;;;;;;;;;;;;;5065685;28;19939;-63
2021/11/16 02:55:32;;;;;;;;;;;;;;;;;;5064178;28;19931;-63
2021/11/16 02:57:59;;;;;;;;;;;;;;;;;;5061927;28;19924;-63
2021/11/16 03:00:26;;;;;;;;;;;;;;;;;;5059268;28;20304;-63
2021/11/16 03:02:54;;;;;;;;;;;;;;;;;;5057827;28;19930;-64
2021/11/16 03:05:21;;;;;;;;;;;;;;;;;;5066667;28;20007;-63
2021/11/16 03:07:55;;;;;;;;;;;;;;;;;;5062978;28;19925;-63
2021/11/16 03:10:23;;;;;;;;;;;;;;;;;;5064134;28;20282;-63
2021/11/16 03:12:50;;;;;;;;;;;;;;;;;;5062060;28;20404;-63
2021/11/16 03:15:16;;;;;;;;;;;;;;;;;;5057830;28;19929;-63
2021/11/16 03:17:43;;;;;;;;;;;;;;;;;;5059203;28;19925;-63
2021/11/16 03:20:10;;;;;;;;;;;;;;;;;;5060846;28;19925;-63
2021/11/16 03:22:37;;;;;;;;;;;;;;;;;;5061702;28;19924;-63
2021/11/16 03:25:04;;;;;;;;;;;;;;;;;;5058782;28;20011;-63
2021/11/16 03:27:35;;;;;;;;;;;;;;;;;;5061079;28;20376;-63
2021/11/16 03:30:02;;;;;;;;;;;;;;;;;;5060943;28;19924;-65
2021/11/16 03:32:31;;;;;;;;;;;;;;;;;;5067965;28;20015;-66
2021/11/16 03:34:58;;;;;;;;;;;;;;;;;;5063999;28;19925;-64
2021/11/16 03:37:25;;;;;;;;;;;;;;;;;;5062127;28;19924;-64
2021/11/16 03:39:52;;;;;;;;;;;;;;;;;;5063106;28;19924;-64
2021/11/16 03:42:19;;;;;;;;;;;;;;;;;;5069358;28;20383;-64
2021/11/16 03:44:46;;;;;;;;;;;;;;;;;;5057553;28;20307;-65
2021/11/16 03:47:13;;;;;;;;;;;;;;;;;;5061666;28;19932;-64
2021/11/16 03:49:40;;;;;;;;;;;;;;;;;;5058382;28;20287;-65
2021/11/16 03:52:07;;;;;;;;;;;;;;;;;;5058959;28;20287;-65
2021/11/16 03:54:34;;;;;;;;;;;;;;;;;;5067729;28;19925;-65
2021/11/16 03:57:01;;;;;;;;;;;;;;;;;;5060341;28;19932;-64
2021/11/16 03:59:28;;;;;;;;;;;;;;;;;;5064378;28;20254;-63
2021/11/16 04:01:55;;;;;;;;;;;;;;;;;;5063543;28;19925;-64
2021/11/16 04:04:23;;;;;;;;;;;;;;;;;;5063287;28;19925;-64
2021/11/16 04:06:50;;;;;;;;;;;;;;;;;;5076642;22;19924;-73
2021/11/16 04:09:17;;;;;;;;;;;;;;;;;;5074344;28;19931;-72
2021/11/16 04:11:44;;;;;;;;;;;;;;;;;;5069760;28;20265;-72
2021/11/16 04:14:10;;;;;;;;;;;;;;;;;;5073256;28;20358;-71
2021/11/16 04:16:37;;;;;;;;;;;;;;;;;;5072849;28;19935;-71
2021/11/16 04:19:04;;;;;;;;;;;;;;;;;;5062565;28;19930;-71
2021/11/16 04:21:31;;;;;;;;;;;;;;;;;;5063424;28;19924;-72
2021/11/16 04:23:58;;;;;;;;;;;;;;;;;;5062758;28;19924;-71
2021/11/16 04:26:25;;;;;;;;;;;;;;;;;;5069289;28;19953;-71
2021/11/16 04:28:52;;;;;;;;;;;;;;;;;;5062363;28;19925;-71
2021/11/16 04:31:19;;;;;;;;;;;;;;;;;;5064829;28;19924;-71
2021/11/16 04:33:46;;;;;;;;;;;;;;;;;;5066575;28;19924;-70
2021/11/16 04:36:17;;;;;;;;;;;;;;;;;;5064342;28;20023;-69
2021/11/16 04:38:44;;;;;;;;;;;;;;;;;;5060731;28;19931;-72
2021/11/16 04:41:10;;;;;;;;;;;;;;;;;;5061131;28;19931;-72
2021/11/16 04:43:38;;;;;;;;;;;;;;;;;;5067930;28;19925;-71
2021/11/16 04:46:07;;;;;;;;;;;;;;;;;;5066857;28;19936;-71
2021/11/16 04:48:47;;;;;;;;;;;;;;;;;;5060829;28;19951;-72
2021/11/16 04:51:34;;;;;;;;;;;;;;;;;;5063866;28;20382;-71
2021/11/16 04:54:14;;;;;;;;;;;;;;;;;;5066153;28;19967;-71
2021/11/16 05:04:54;;;;;;;;;;;;;;;;;;5058255;28;19919;-71
2021/11/16 05:07:22;;;;;;;;;;;;;;;;;;5064768;28;19931;-71
2021/11/16 05:09:50;;;;;;;;;;;;;;;;;;5065820;28;19962;-72
2021/11/16 05:12:17;;;;;;;;;;;;;;;;;;5060686;28;19970;-74
2021/11/16 05:14:44;;;;;;;;;;;;;;;;;;5063971;28;19924;-71
2021/11/16 05:17:12;;;;;;;;;;;;;;;;;;5060248;28;19924;-71
2021/11/16 05:19:39;;;;;;;;;;;;;;;;;;5061321;28;19978;-70
2021/11/16 05:22:06;;;;;;;;;;;;;;;;;;5063470;28;20403;-73
2021/11/16 05:24:32;;;;;;;;;;;;;;;;;;5063009;28;19932;-71
2021/11/16 05:26:59;;;;;;;;;;;;;;;;;;5059220;28;20373;-70
2021/11/16 05:29:26;;;;;;;;;;;;;;;;;;5069156;28;19925;-70
2021/11/16 05:31:53;;;;;;;;;;;;;;;;;;5062536;28;19931;-71
2021/11/16 05:34:20;;;;;;;;;;;;;;;;;;5063153;28;19924;-71
2021/11/16 05:36:47;;;;;;;;;;;;;;;;;;5069798;28;20419;-70
2021/11/16 05:39:14;;;;;;;;;;;;;;;;;;5065777;28;19925;-74
2021/11/16 05:41:41;;;;;;;;;;;;;;;;;;5066498;28;19931;-72
2021/11/16 05:44:09;;;;;;;;;;;;;;;;;;5067066;28;19928;-71
2021/11/16 05:46:36;;;;;;;;;;;;;;;;;;5061398;28;19948;-71
2021/11/16 05:49:03;;;;;;;;;;;;;;;;;;5062553;28;19996;-71
2021/11/16 05:51:30;;;;;;;;;;;;;;;;;;5067087;28;19924;-73
2021/11/16 05:53:58;;;;;;;;;;;;;;;;;;5060174;28;19925;-74
2021/11/16 05:56:25;;;;;;;;;;;;;;;;;;5064702;28;19960;-73
2021/11/16 05:58:53;;;;;;;;;;;;;;;;;;5066279;28;19925;-73
2021/11/16 06:01:21;;;;;;;;;;;;;;;;;;5055951;28;19983;-71
2021/11/16 06:03:51;;;;;;;;;;;;;;;;;;5066331;28;19932;-71
2021/11/16 06:06:18;;;;;;;;;;;;;;;;;;5065814;28;19925;-70
2021/11/16 06:08:48;;;;;;;;;;;;;;;;;;5064977;28;19931;-71
2021/11/16 06:11:15;;;;;;;;;;;;;;;;;;5066896;28;19924;-68
2021/11/16 06:13:42;;;;;;;;;;;;;;;;;;5053534;28;20695;-72
2021/11/16 06:16:09;;;;;;;;;;;;;;;;;;5050364;28;20314;-71
2021/11/16 06:18:35;;;;;;;;;;;;;;;;;;5056836;28;20394;-69
2021/11/16 06:21:02;;;;;;;;;;;;;;;;;;5060728;28;19932;-70
2021/11/16 06:23:29;;;;;;;;;;;;;;;;;;5070278;28;19934;-71
2021/11/16 06:25:56;;;;;;;;;;;;;;;;;;5061797;28;19932;-68
2021/11/16 06:28:23;;;;;;;;;;;;;;;;;;5054537;28;20062;-70
2021/11/16 06:30:50;;;;;;;;;;;;;;;;;;5056178;28;19924;-70
2021/11/16 06:33:17;;;;;;;;;;;;;;;;;;5060145;28;20545;-71
2021/11/16 06:35:44;;;;;;;;;;;;;;;;;;5057758;28;20285;-70
2021/11/16 06:38:11;;;;;;;;;;;;;;;;;;5065448;28;20344;-69
2021/11/16 06:40:38;;;;;;;;;;;;;;;;;;5057827;28;19933;-69
2021/11/16 06:43:05;;;;;;;;;;;;;;;;;;5056934;28;19925;-70
2021/11/16 06:45:33;;;;;;;;;;;;;;;;;;5066733;28;20400;-70
2021/11/16 06:48:00;;;;;;;;;;;;;;;;;;5064306;28;19925;-70
2021/11/16 06:50:27;;;;;;;;;;;;;;;;;;5064128;28;20280;-71
2021/11/16 06:52:54;;;;;;;;;;;;;;;;;;5064751;28;19925;-71
2021/11/16 06:55:20;;;;;;;;;;;;;;;;;;5055429;28;19940;-70
2021/11/16 06:57:48;;;;;;;;;;;;;;;;;;5061499;28;19924;-70
2021/11/16 07:00:15;;;;;;;;;;;;;;;;;;5066966;28;19971;-70
2021/11/16 07:02:43;;;;;;;;;;;;;;;;;;5070491;28;19930;-70
2021/11/16 07:05:10;;;;;;;;;;;;;;;;;;5069176;28;19929;-71
2021/11/16 07:07:37;;;;;;;;;;;;;;;;;;5064721;28;19931;-71
2021/11/16 07:10:04;;;;;;;;;;;;;;;;;;5064859;28;19947;-70
2021/11/16 07:12:31;;;;;;;;;;;;;;;;;;5067743;28;19931;-70
2021/11/16 07:14:58;;;;;;;;;;;;;;;;;;5063467;28;19928;-70
2021/11/16 07:17:26;;;;;;;;;;;;;;;;;;5070808;28;19924;-70
2021/11/16 07:19:55;;;;;;;;;;;;;;;;;;5070308;28;19960;-70
2021/11/16 07:22:21;;;;;;;;;;;;;;;;;;5066011;28;20381;-70
2021/11/16 07:24:48;;;;;;;;;;;;;;;;;;5067654;28;19936;-69
2021/11/16 07:27:16;;;;;;;;;;;;;;;;;;5064233;28;19928;-69
2021/11/16 07:29:43;;;;;;;;;;;;;;;;;;5070121;28;20011;-69
2021/11/16 07:32:10;;;;;;;;;;;;;;;;;;5070258;28;19971;-69
2021/11/16 07:34:38;;;;;;;;;;;;;;;;;;5066177;28;19929;-70
2021/11/16 07:37:04;;;;;;;;;;;;;;;;;;5068758;28;19928;-68
2021/11/16 07:39:32;;;;;;;;;;;;;;;;;;5072090;28;20036;-68
2021/11/16 07:41:58;;;;;;;;;;;;;;;;;;5064410;28;19975;-69
2021/11/16 07:44:25;;;;;;;;;;;;;;;;;;5066491;28;19943;-69
2021/11/16 07:46:53;;;;;;;;;;;;;;;;;;5072947;28;19924;-69
2021/11/16 07:49:20;;;;;;;;;;;;;;;;;;5086211;28;20372;-69
2021/11/16 07:51:47;;;;;;;;;;;;;;;;;;5068999;28;19924;-70
2021/11/16 07:54:14;;;;;;;;;;;;;;;;;;5070030;28;19968;-69
2021/11/16 07:56:41;;;;;;;;;;;;;;;;;;5061252;28;19932;-69
2021/11/16 07:59:10;;;;;;;;;;;;;;;;;;5070804;28;19925;-70
2021/11/16 08:01:40;;;;;;;;;;;;;;;;;;5058214;28;19924;-69
2021/11/16 08:04:17;;;;;;;;;;;;;;;;;;5069391;28;20428;-69
2021/11/16 08:06:52;;;;;;;;;;;;;;;;;;5063951;28;19928;-69
2021/11/16 08:09:26;;;;;;;;;;;;;;;;;;5068868;28;19929;-69
2021/11/16 08:11:59;;;;;;;;;;;;;;;;;;5073420;28;20007;-70
2021/11/16 08:14:26;;;;;;;;;;;;;;;;;;5076066;28;19924;-70
2021/11/16 08:16:53;;;;;;;;;;;;;;;;;;5074937;28;19963;-69
2021/11/16 08:19:20;;;;;;;;;;;;;;;;;;5073148;28;19936;-70
2021/11/16 08:21:48;;;;;;;;;;;;;;;;;;5076009;28;19925;-71
2021/11/16 08:24:15;;;;;;;;;;;;;;;;;;5082771;28;19968;-69
2021/11/16 08:26:42;;;;;;;;;;;;;;;;;;5074360;28;19931;-70
2021/11/16 08:29:09;;;;;;;;;;;;;;;;;;5086173;28;19966;-70
2021/11/16 08:31:42;;;;;;;;;;;;;;;;;;5087221;28;19925;-70
2021/11/16 08:34:09;;;;;;;;;;;;;;;;;;5079734;28;19931;-70
2021/11/16 08:36:36;;;;;;;;;;;;;;;;;;5081124;28;19947;-70
2021/11/16 08:39:03;;;;;;;;;;;;;;;;;;5074583;28;20018;-70
2021/11/16 08:41:31;;;;;;;;;;;;;;;;;;5077539;28;19932;-68
2021/11/16 08:43:58;;;;;;;;;;;;;;;;;;5078859;28;19972;-70
2021/11/16 08:46:25;;;;;;;;;;;;;;;;;;5078620;28;19931;-70
2021/11/16 08:48:52;;;;;;;;;;;;;;;;;;5081086;28;19939;-72
2021/11/16 08:51:19;;;;;;;;;;;;;;;;;;5073550;28;19980;-71
2021/11/16 08:53:46;;;;;;;;;;;;;;;;;;5080629;28;19929;-71
2021/11/16 08:56:13;;;;;;;;;;;;;;;;;;5079543;28;19979;-72
2021/11/16 08:58:40;;;;;;;;;;;;;;;;;;5077403;28;19932;-70
2021/11/16 09:01:08;;;;;;;;;;;;;;;;;;5075713;28;19929;-70
2021/11/16 09:03:35;;;;;;;;;;;;;;;;;;5077967;28;19928;-71
2021/11/16 09:06:02;;;;;;;;;;;;;;;;;;5087175;28;19984;-68
2021/11/16 09:08:29;;;;;;;;;;;;;;;;;;5085375;28;19971;-70
2021/11/16 09:10:56;;;;;;;;;;;;;;;;;;5082587;28;19950;-70
2021/11/16 09:13:23;;;;;;;;;;;;;;;;;;5085102;28;19928;-70
2021/11/16 09:15:50;;;;;;;;;;;;;;;;;;5084603;28;19931;-70
2021/11/16 09:18:17;;;;;;;;;;;;;;;;;;5086599;28;19935;-70
2021/11/16 09:20:44;;;;;;;;;;;;;;;;;;5088937;28;19924;-68
2021/11/16 09:23:11;;;;;;;;;;;;;;;;;;5084783;28;19933;-70
2021/11/16 09:25:38;;;;;;;;;;;;;;;;;;5083384;28;20556;-70
2021/11/16 09:28:10;;;;;;;;;;;;;;;;;;5077294;28;20241;-70
2021/11/16 09:30:37;;;;;;;;;;;;;;;;;;5080543;28;19924;-70
2021/11/16 09:33:05;;;;;;;;;;;;;;;;;;5084907;28;19934;-70
2021/11/16 09:35:32;;;;;;;;;;;;;;;;;;5074714;28;19928;-70
2021/11/16 09:37:59;;;;;;;;;;;;;;;;;;5080057;28;19992;-70
2021/11/16 09:40:26;;;;;;;;;;;;;;;;;;5063273;28;20320;-70
2021/11/16 09:42:53;;;;;;;;;;;;;;;;;;5066267;28;19935;-70
2021/11/16 09:45:25;;;;;;;;;;;;;;;;;;5066721;28;19931;-70
2021/11/16 09:47:52;;;;;;;;;;;;;;;;;;5063005;28;19924;-70
2021/11/16 09:50:19;;;;;;;;;;;;;;;;;;5064433;28;20007;-70
2021/11/16 09:52:46;;;;;;;;;;;;;;;;;;5061509;28;19931;-70
2021/11/16 09:55:13;;;;;;;;;;;;;;;;;;5063838;28;20285;-70
2021/11/16 09:57:40;;;;;;;;;;;;;;;;;;5065519;28;20012;-70
2021/11/16 10:00:07;;;;;;;;;;;;;;;;;;5063451;28;20020;-70
2021/11/16 10:02:34;;;;;;;;;;;;;;;;;;5076938;28;19946;-69
2021/11/16 10:05:01;;;;;;;;;;;;;;;;;;5067060;28;19939;-70
2021/11/16 10:07:28;;;;;;;;;;;;;;;;;;5080651;28;19963;-70
2021/11/16 10:09:55;;;;;;;;;;;;;;;;;;5080354;28;19933;-70
2021/11/16 10:12:24;;;;;;;;;;;;;;;;;;5096149;22;19935;-65
2021/11/16 10:14:50;;;;;;;;;;;;;;;;;;5081261;28;20052;-64
2021/11/16 10:17:17;;;;;;;;;;;;;;;;;;5086185;28;19924;-64
2021/11/16 10:19:44;;;;;;;;;;;;;;;;;;5083691;28;19978;-65
2021/11/16 10:22:14;;;;;;;;;;;;;;;;;;5084102;28;19938;-64
2021/11/16 10:24:41;;;;;;;;;;;;;;;;;;5084001;28;19935;-64
2021/11/16 10:27:08;;;;;;;;;;;;;;;;;;5081625;28;20018;-64
2021/11/16 10:29:35;;;;;;;;;;;;;;;;;;5077130;28;19924;-64
2021/11/16 10:32:02;;;;;;;;;;;;;;;;;;5082729;28;19931;-63
2021/11/16 10:34:29;;;;;;;;;;;;;;;;;;5078722;28;20394;-64
2021/11/16 10:36:56;;;;;;;;;;;;;;;;;;5083671;28;19994;-64
2021/11/16 10:39:23;;;;;;;;;;;;;;;;;;5085257;28;19924;-65
2021/11/16 10:41:50;;;;;;;;;;;;;;;;;;5085372;28;19924;-66
2021/11/16 10:44:21;;;;;;;;;;;;;;;;;;5087701;28;20311;-63
2021/11/16 10:46:48;;;;;;;;;;;;;;;;;;5088641;28;20009;-64
2021/11/16 10:49:15;;;;;;;;;;;;;;;;;;5085585;28;20430;-65
2021/11/16 10:51:42;;;;;;;;;;;;;;;;;;5085506;28;20287;-63
2021/11/16 10:54:09;;;;;;;;;;;;;;;;;;5090284;28;19932;-65
2021/11/16 10:56:36;;;;;;;;;;;;;;;;;;5086379;28;20372;-65
2021/11/16 10:59:03;;;;;;;;;;;;;;;;;;5087113;28;19935;-64
2021/11/16 11:01:30;;;;;;;;;;;;;;;;;;5090131;28;20336;-65
2021/11/16 11:03:57;;;;;;;;;;;;;;;;;;5092564;28;20018;-66
2021/11/16 11:06:24;;;;;;;;;;;;;;;;;;5083307;28;19931;-65
2021/11/16 11:08:51;;;;;;;;;;;;;;;;;;5085322;28;19930;-65
2021/11/16 11:11:18;;;;;;;;;;;;;;;;;;5084287;28;19931;-65
2021/11/16 11:13:45;;;;;;;;;;;;;;;;;;5082373;28;19980;-65
2021/11/16 11:16:13;;;;;;;;;;;;;;;;;;5080400;28;19943;-64
2021/11/16 11:18:40;;;;;;;;;;;;;;;;;;5085127;28;20026;-65
2021/11/16 11:21:07;;;;;;;;;;;;;;;;;;5083038;28;20164;-66
2021/11/16 11:23:34;;;;;;;;;;;;;;;;;;5088094;28;20286;-65
2021/11/16 11:26:01;;;;;;;;;;;;;;;;;;5091528;28;20015;-64
2021/11/16 11:28:30;;;;;;;;;;;;;;;;;;5087962;28;20011;-64
2021/11/16 11:30:57;;;;;;;;;;;;;;;;;;5086847;28;19959;-64
2021/11/16 11:33:24;;;;;;;;;;;;;;;;;;5084649;28;19939;-63
2021/11/16 11:35:51;;;;;;;;;;;;;;;;;;5083939;28;19931;-63
2021/11/16 11:38:18;;;;;;;;;;;;;;;;;;5087086;28;19924;-63
2021/11/16 11:40:45;;;;;;;;;;;;;;;;;;5087177;28;19924;-62
2021/11/16 11:43:12;;;;;;;;;;;;;;;;;;5088934;28;19928;-63
2021/11/16 11:45:39;;;;;;;;;;;;;;;;;;5087128;28;19928;-64
2021/11/16 11:48:06;;;;;;;;;;;;;;;;;;5087750;28;19950;-64
2021/11/16 11:50:33;;;;;;;;;;;;;;;;;;5089364;28;19991;-63
2021/11/16 11:53:00;;;;;;;;;;;;;;;;;;5100933;28;19924;-64
2021/11/16 11:55:27;;;;;;;;;;;;;;;;;;5101925;28;19999;-65
2021/11/16 11:57:55;;;;;;;;;;;;;;;;;;5098913;28;20003;-64
2021/11/16 12:00:22;;;;;;;;;;;;;;;;;;5097476;28;19928;-65
2021/11/16 12:02:49;;;;;;;;;;;;;;;;;;5096350;28;20524;-63
2021/11/16 12:05:16;;;;;;;;;;;;;;;;;;5097422;28;19971;-63
2021/11/16 12:07:43;;;;;;;;;;;;;;;;;;5096628;28;19982;-65
2021/11/16 12:10:10;;;;;;;;;;;;;;;;;;5099179;28;19924;-63
2021/11/16 12:12:37;;;;;;;;;;;;;;;;;;5095566;28;19963;-65
2021/11/16 12:15:04;;;;;;;;;;;;;;;;;;5088116;28;19924;-64
2021/11/16 12:17:31;;;;;;;;;;;;;;;;;;5091808;28;19947;-65
2021/11/16 12:19:57;;;;;;;;;;;;;;;;;;5091449;28;19924;-63
2021/11/16 12:22:24;;;;;;;;;;;;;;;;;;5093850;28;19992;-66
2021/11/16 12:24:51;;;;;;;;;;;;;;;;;;5102717;28;19924;-65
2021/11/16 12:27:18;;;;;;;;;;;;;;;;;;5098967;28;19971;-64
2021/11/16 12:29:46;;;;;;;;;;;;;;;;;;5096245;28;19932;-63
2021/11/16 12:32:12;;;;;;;;;;;;;;;;;;5094799;28;19974;-65
2021/11/16 12:34:40;;;;;;;;;;;;;;;;;;5098227;28;19924;-66
2021/11/16 12:37:07;;;;;;;;;;;;;;;;;;5093602;28;19931;-65
2021/11/16 12:39:34;;;;;;;;;;;;;;;;;;5102444;28;19930;-65
2021/11/16 12:42:01;;;;;;;;;;;;;;;;;;5099460;28;19987;-65
2021/11/16 12:44:28;;;;;;;;;;;;;;;;;;5105088;28;19928;-63
2021/11/16 12:46:55;;;;;;;;;;;;;;;;;;5099276;28;20407;-64
2021/11/16 12:49:22;;;;;;;;;;;;;;;;;;5090358;28;19978;-65
2021/11/16 12:51:48;;;;;;;;;;;;;;;;;;5088878;28;19924;-64
2021/11/16 12:54:15;;;;;;;;;;;;;;;;;;5082498;28;19924;-64
2021/11/16 12:56:42;;;;;;;;;;;;;;;;;;5087840;28;19924;-65
2021/11/16 12:59:09;;;;;;;;;;;;;;;;;;5089409;28;19924;-64
2021/11/16 13:01:36;;;;;;;;;;;;;;;;;;5083013;28;20006;-65
2021/11/16 13:04:06;;;;;;;;;;;;;;;;;;5087088;28;19924;-64
2021/11/16 13:06:33;;;;;;;;;;;;;;;;;;5086622;28;19982;-64
2021/11/16 13:09:00;;;;;;;;;;;;;;;;;;5083210;28;19932;-64
2021/11/16 13:11:27;;;;;;;;;;;;;;;;;;5078896;28;19936;-65
2021/11/16 13:13:54;;;;;;;;;;;;;;;;;;5084480;28;19924;-64
2021/11/16 13:16:21;;;;;;;;;;;;;;;;;;5089020;28;20463;-64
2021/11/16 13:18:48;;;;;;;;;;;;;;;;;;5081233;28;19971;-65
2021/11/16 13:21:16;;;;;;;;;;;;;;;;;;5084081;28;20520;-64
2021/11/16 13:23:43;;;;;;;;;;;;;;;;;;5089306;28;19966;-65
2021/11/16 13:26:10;;;;;;;;;;;;;;;;;;5084795;28;19924;-64
2021/11/16 13:31:17;;;;;;;;;;;;;;;;;;5080330;28;19932;-65
2021/11/16 13:33:44;;;;;;;;;;;;;;;;;;5091057;28;19971;-64
2021/11/16 13:36:13;;;;;;;;;;;;;;;;;;5079348;28;19929;-64
2021/11/16 13:38:40;;;;;;;;;;;;;;;;;;5084384;28;20367;-64
2021/11/16 13:41:07;;;;;;;;;;;;;;;;;;5085207;28;20387;-65
2021/11/16 13:43:35;;;;;;;;;;;;;;;;;;5090122;28;19935;-64
2021/11/16 13:46:02;;;;;;;;;;;;;;;;;;5084625;28;20320;-64
2021/11/16 13:48:29;;;;;;;;;;;;;;;;;;5089742;28;20054;-65
2021/11/16 13:50:56;;;;;;;;;;;;;;;;;;5081532;28;19931;-65
2021/11/16 13:53:23;;;;;;;;;;;;;;;;;;5083552;28;19953;-65
2021/11/16 13:55:50;;;;;;;;;;;;;;;;;;5080042;28;19924;-65
2021/11/16 13:58:21;;;;;;;;;;;;;;;;;;5081723;28;19930;-65
2021/11/16 14:00:49;;;;;;;;;;;;;;;;;;5083146;28;20315;-65
2021/11/16 14:03:16;;;;;;;;;;;;;;;;;;5086092;28;19924;-65
2021/11/16 14:05:45;;;;;;;;;;;;;;;;;;5086704;28;19970;-65
2021/11/16 14:08:12;;;;;;;;;;;;;;;;;;5081074;28;20347;-65
2021/11/16 14:10:39;;;;;;;;;;;;;;;;;;5081833;28;20385;-65
2021/11/16 14:13:06;;;;;;;;;;;;;;;;;;5078645;28;19925;-65
2021/11/16 14:15:33;;;;;;;;;;;;;;;;;;5084449;28;19928;-65
2021/11/16 14:18:00;;;;;;;;;;;;;;;;;;5084409;28;19928;-65
2021/11/16 14:20:27;;;;;;;;;;;;;;;;;;5079682;28;20023;-65
2021/11/16 14:22:55;;;;;;;;;;;;;;;;;;5078470;28;20012;-66
2021/11/16 14:25:23;;;;;;;;;;;;;;;;;;5078327;28;19930;-65
2021/11/16 14:27:50;;;;;;;;;;;;;;;;;;5082359;28;19928;-65
2021/11/16 14:30:17;;;;;;;;;;;;;;;;;;5079909;28;19924;-66
2021/11/16 14:32:44;;;;;;;;;;;;;;;;;;5084050;28;19924;-64
2021/11/16 14:35:11;;;;;;;;;;;;;;;;;;5081461;28;20273;-64
2021/11/16 14:37:38;;;;;;;;;;;;;;;;;;5081576;28;20340;-63
2021/11/16 14:40:05;;;;;;;;;;;;;;;;;;5083030;28;20404;-63
2021/11/16 14:42:32;;;;;;;;;;;;;;;;;;5086010;28;20324;-64
2021/11/16 14:44:59;;;;;;;;;;;;;;;;;;5077529;28;19924;-64
2021/11/16 14:47:26;;;;;;;;;;;;;;;;;;5078341;28;19924;-63
2021/11/16 14:49:57;;;;;;;;;;;;;;;;;;5081581;28;20299;-63
2021/11/16 14:52:24;;;;;;;;;;;;;;;;;;5079773;28;19951;-64
2021/11/16 14:54:51;;;;;;;;;;;;;;;;;;5080276;28;19925;-64
2021/11/16 14:57:18;;;;;;;;;;;;;;;;;;5087388;28;19928;-64
2021/11/16 14:59:45;;;;;;;;;;;;;;;;;;5079676;28;19924;-64
2021/11/16 15:02:12;;;;;;;;;;;;;;;;;;5081704;28;19924;-63
2021/11/16 15:04:39;;;;;;;;;;;;;;;;;;5083805;28;20675;-63
2021/11/16 15:07:06;;;;;;;;;;;;;;;;;;5079124;28;19930;-65
2021/11/16 15:09:33;;;;;;;;;;;;;;;;;;5081936;28;20338;-64
2021/11/16 15:12:00;;;;;;;;;;;;;;;;;;5078515;28;19924;-64
2021/11/16 15:14:28;;;;;;;;;;;;;;;;;;5077463;28;19929;-64
2021/11/16 15:16:56;;;;;;;;;;;;;;;;;;5081448;28;20368;-65
2021/11/16 15:19:25;;;;;;;;;;;;;;;;;;5081426;28;20042;-64
2021/11/16 15:21:54;;;;;;;;;;;;;;;;;;5081310;28;19936;-65
2021/11/16 15:24:28;;;;;;;;;;;;;;;;;;5083832;28;19931;-65
2021/11/16 15:26:55;;;;;;;;;;;;;;;;;;5081700;28;20360;-66
2021/11/16 15:29:22;;;;;;;;;;;;;;;;;;5085395;28;19963;-66
2021/11/16 15:31:49;;;;;;;;;;;;;;;;;;5088838;28;19924;-66
2021/11/16 15:34:16;;;;;;;;;;;;;;;;;;5082309;28;19956;-65
2021/11/16 15:36:44;;;;;;;;;;;;;;;;;;5086920;28;20398;-66
2021/11/16 15:39:11;;;;;;;;;;;;;;;;;;5084415;28;19928;-66
2021/11/16 15:41:40;;;;;;;;;;;;;;;;;;5087757;28;19935;-65
2021/11/16 15:44:25;;;;;;;;;;;;;;;;;;5086746;28;19934;-65
2021/11/16 15:49:44;;;;;;;;;;;;;;;;;;5086129;28;20010;-65
2021/11/16 15:52:26;;;;;;;;;;;;;;;;;;5087816;28;19934;-65
2021/11/16 15:57:38;;;;;;;;;;;;;;;;;;5082536;28;19985;-66
2021/11/16 16:00:05;;;;;;;;;;;;;;;;;;5083336;28;19929;-65
2021/11/16 16:02:32;;;;;;;;;;;;;;;;;;5085782;28;19928;-65
2021/11/16 16:04:59;;;;;;;;;;;;;;;;;;5085940;28;20010;-64
2021/11/16 16:07:26;;;;;;;;;;;;;;;;;;5081085;28;19947;-64
2021/11/16 16:09:53;;;;;;;;;;;;;;;;;;5084979;28;19946;-65
2021/11/16 16:12:20;;;;;;;;;;;;;;;;;;5100316;22;19928;-70
2021/11/16 16:14:48;;;;;;;;;;;;;;;;;;5085570;28;19928;-70
2021/11/16 16:17:18;;;;;;;;;;;;;;;;;;5087357;28;20298;-70
2021/11/16 16:19:45;;;;;;;;;;;;;;;;;;5088898;28;19974;-70
2021/11/16 16:22:14;;;;;;;;;;;;;;;;;;5086127;28;19967;-70
2021/11/16 16:24:41;;;;;;;;;;;;;;;;;;5079858;28;19930;-69
2021/11/16 16:27:09;;;;;;;;;;;;;;;;;;5102684;28;20003;-71
2021/11/16 16:29:35;;;;;;;;;;;;;;;;;;5087608;28;19931;-71
2021/11/16 16:32:02;;;;;;;;;;;;;;;;;;5081578;28;19924;-71
2021/11/16 16:34:30;;;;;;;;;;;;;;;;;;5080600;28;20295;-71
2021/11/16 16:36:59;;;;;;;;;;;;;;;;;;5080504;28;19931;-69
2021/11/16 16:39:25;;;;;;;;;;;;;;;;;;5084022;28;19928;-71
2021/11/16 16:41:52;;;;;;;;;;;;;;;;;;5081531;28;19971;-71
2021/11/16 16:44:19;;;;;;;;;;;;;;;;;;5083709;28;19989;-72
2021/11/16 16:46:46;;;;;;;;;;;;;;;;;;5086409;28;19934;-71
2021/11/16 16:49:13;;;;;;;;;;;;;;;;;;5084776;28;19924;-71
2021/11/16 16:51:40;;;;;;;;;;;;;;;;;;5082607;28;19935;-71
2021/11/16 16:54:08;;;;;;;;;;;;;;;;;;5081004;28;19990;-71
2021/11/16 16:56:35;;;;;;;;;;;;;;;;;;5080921;28;19972;-72
2021/11/16 16:59:05;;;;;;;;;;;;;;;;;;5082644;28;20031;-71
2021/11/16 17:01:33;;;;;;;;;;;;;;;;;;5084033;28;19924;-71
2021/11/16 17:04:00;;;;;;;;;;;;;;;;;;5079720;28;19946;-71